sensor_id;sensor_type;location;lat;lon;timestamp;pressure;altitude;pressure_sealevel;temperature;humidity
37486;BME280;23341;50.296;18.960;2023-04-07T00:01:15;40708.03;;;-144.43;100.00
37486;BME280;23341;50.296;18.960;2023-04-07T00:06:20;40724.00;;;-144.43;100.00
37486;BME280;23341;50.296;18.960;2023-04-07T00:11:25;40702.06;;;-144.43;100.00
37486;BME280;23341;50.296;18.960;2023-04-07T00:16:29;40741.94;;;-144.43;100.00
37486;BME280;23341;50.296;18.960;2023-04-07T00:21:34;40686.09;;;-144.43;100.00
37486;BME280;23341;50.296;18.960;2023-04-07T00:26:40;40666.16;;;-144.43;100.00
37486;BME280;23341;50.296;18.960;2023-04-07T00:31:44;40737.94;;;-144.43;100.00
37486;BME280;23341;50.296;18.960;2023-04-07T00:36:48;40753.91;;;-144.43;100.00
37486;BME280;23341;50.296;18.960;2023-04-07T00:41:55;40741.94;;;-144.43;100.00
37486;BME280;23341;50.296;18.960;2023-04-07T00:47:00;40755.91;;;-144.43;100.00
37486;BME280;23341;50.296;18.960;2023-04-07T00:52:05;40751.91;;;-144.43;100.00
37486;BME280;23341;50.296;18.960;2023-04-07T00:57:11;40686.09;;;-144.43;100.00
37486;BME280;23341;50.296;18.960;2023-04-07T01:02:17;40668.16;;;-144.43;100.00
37486;BME280;23341;50.296;18.960;2023-04-07T01:07:30;40672.16;;;-144.43;100.00
37486;BME280;23341;50.296;18.960;2023-04-07T01:12:49;40622.28;;;-144.43;100.00
37486;BME280;23341;50.296;18.960;2023-04-07T01:18:00;40590.38;;;-144.43;100.00
37486;BME280;23341;50.296;18.960;2023-04-07T01:23:15;40606.34;;;-144.43;100.00
37486;BME280;23341;50.296;18.960;2023-04-07T01:28:48;40652.19;;;-144.43;100.00
37486;BME280;23341;50.296;18.960;2023-04-07T01:33:56;40536.53;;;-144.43;100.00
37486;BME280;23341;50.296;18.960;2023-04-07T01:39:03;40536.53;;;-144.43;100.00
37486;BME280;23341;50.296;18.960;2023-04-07T01:44:07;40480.69;;;-144.43;100.00
37486;BME280;23341;50.296;18.960;2023-04-07T01:49:14;40446.81;;;-144.43;100.00
37486;BME280;23341;50.296;18.960;2023-04-07T01:54:19;40458.75;;;-144.43;100.00
37486;BME280;23341;50.296;18.960;2023-04-07T01:59:24;40386.97;;;-144.43;100.00
37486;BME280;23341;50.296;18.960;2023-04-07T02:04:34;40277.31;;;-144.43;100.00
37486;BME280;23341;50.296;18.960;2023-04-07T02:09:41;40386.97;;;-144.43;100.00
37486;BME280;23341;50.296;18.960;2023-04-07T02:14:46;40351.09;;;-144.43;100.00
37486;BME280;23341;50.296;18.960;2023-04-07T02:19:53;40412.91;;;-144.43;100.00
37486;BME280;23341;50.296;18.960;2023-04-07T02:24:59;40418.88;;;-144.43;100.00
37486;BME280;23341;50.296;18.960;2023-04-07T02:30:05;40450.78;;;-144.43;100.00
37486;BME280;23341;50.296;18.960;2023-04-07T02:35:11;40438.81;;;-144.43;100.00
37486;BME280;23341;50.296;18.960;2023-04-07T02:40:15;40396.94;;;-144.43;100.00
37486;BME280;23341;50.296;18.960;2023-04-07T02:45:20;40438.81;;;-144.43;100.00
37486;BME280;23341;50.296;18.960;2023-04-07T02:50:26;40488.69;;;-144.43;100.00
37486;BME280;23341;50.296;18.960;2023-04-07T02:55:31;40506.63;;;-144.43;100.00
37486;BME280;23341;50.296;18.960;2023-04-07T03:00:35;40502.63;;;-144.43;100.00
37486;BME280;23341;50.296;18.960;2023-04-07T03:05:47;40486.69;;;-144.43;100.00
37486;BME280;23341;50.296;18.960;2023-04-07T03:10:51;40510.63;;;-144.43;100.00
37486;BME280;23341;50.296;18.960;2023-04-07T03:16:01;40494.66;;;-144.43;100.00
37486;BME280;23341;50.296;18.960;2023-04-07T03:21:14;40458.75;;;-144.43;100.00
37486;BME280;23341;50.296;18.960;2023-04-07T03:26:20;40480.69;;;-144.43;100.00
37486;BME280;23341;50.296;18.960;2023-04-07T03:31:25;40426.84;;;-144.43;100.00
37486;BME280;23341;50.296;18.960;2023-04-07T03:36:31;40422.88;;;-144.43;100.00
37486;BME280;23341;50.296;18.960;2023-04-07T03:41:38;40466.75;;;-144.43;100.00
37486;BME280;23341;50.296;18.960;2023-04-07T03:46:44;40446.81;;;-144.43;100.00
37486;BME280;23341;50.296;18.960;2023-04-07T03:51:52;40416.88;;;-144.43;100.00
37486;BME280;23341;50.296;18.960;2023-04-07T03:56:57;40424.88;;;-144.43;100.00
37486;BME280;23341;50.296;18.960;2023-04-07T04:02:01;40398.94;;;-144.43;100.00
37486;BME280;23341;50.296;18.960;2023-04-07T04:07:08;40436.84;;;-144.43;100.00
37486;BME280;23341;50.296;18.960;2023-04-07T04:12:23;40448.78;;;-144.43;100.00
37486;BME280;23341;50.296;18.960;2023-04-07T04:17:38;40436.84;;;-144.43;100.00
37486;BME280;23341;50.296;18.960;2023-04-07T04:22:45;40446.81;;;-144.43;100.00
37486;BME280;23341;50.296;18.960;2023-04-07T04:27:51;40478.72;;;-144.43;100.00
37486;BME280;23341;50.296;18.960;2023-04-07T04:32:57;40514.59;;;-144.43;100.00
37486;BME280;23341;50.296;18.960;2023-04-07T04:38:29;40530.56;;;-144.43;100.00
37486;BME280;23341;50.296;18.960;2023-04-07T04:44:00;40648.22;;;-144.43;100.00
37486;BME280;23341;50.296;18.960;2023-04-07T04:49:06;40684.09;;;-144.43;100.00
37486;BME280;23341;50.296;18.960;2023-04-07T04:54:12;40710.03;;;-144.43;100.00
37486;BME280;23341;50.296;18.960;2023-04-07T04:59:18;40702.06;;;-144.43;100.00
37486;BME280;23341;50.296;18.960;2023-04-07T05:04:31;40722.00;;;-144.43;100.00
37486;BME280;23341;50.296;18.960;2023-04-07T05:10:04;40809.75;;;-144.43;100.00
37486;BME280;23341;50.296;18.960;2023-04-07T05:15:11;40837.66;;;-144.43;100.00
37486;BME280;23341;50.296;18.960;2023-04-07T05:20:20;40897.50;;;-144.43;100.00
37486;BME280;23341;50.296;18.960;2023-04-07T05:25:26;40923.44;;;-144.43;100.00
37486;BME280;23341;50.296;18.960;2023-04-07T05:30:34;40975.28;;;-144.43;100.00
37486;BME280;23341;50.296;18.960;2023-04-07T05:35:39;40999.22;;;-144.43;100.00
37486;BME280;23341;50.296;18.960;2023-04-07T05:40:46;41106.91;;;-144.43;100.00
37486;BME280;23341;50.296;18.960;2023-04-07T05:46:10;41190.69;;;-144.43;100.00
37486;BME280;23341;50.296;18.960;2023-04-07T05:51:23;41132.84;;;-144.43;100.00
37486;BME280;23341;50.296;18.960;2023-04-07T05:56:31;41138.81;;;-144.43;100.00
37486;BME280;23341;50.296;18.960;2023-04-07T06:01:36;41138.81;;;-144.43;100.00
37486;BME280;23341;50.296;18.960;2023-04-07T06:06:45;41166.75;;;-144.43;100.00
37486;BME280;23341;50.296;18.960;2023-04-07T06:11:51;41256.50;;;-144.43;100.00
37486;BME280;23341;50.296;18.960;2023-04-07T06:16:56;41206.63;;;-144.43;100.00
37486;BME280;23341;50.296;18.960;2023-04-07T06:22:04;41244.53;;;-144.43;100.00
37486;BME280;23341;50.296;18.960;2023-04-07T06:27:13;41310.34;;;-144.43;100.00
37486;BME280;23341;50.296;18.960;2023-04-07T06:32:18;41292.41;;;-144.43;100.00
37486;BME280;23341;50.296;18.960;2023-04-07T06:37:22;41300.38;;;-144.43;100.00
37486;BME280;23341;50.296;18.960;2023-04-07T06:42:30;41408.09;;;-144.43;100.00
37486;BME280;23341;50.296;18.960;2023-04-07T06:47:46;41495.84;;;-144.43;100.00
37486;BME280;23341;50.296;18.960;2023-04-07T06:52:51;41483.88;;;-144.43;100.00
37486;BME280;23341;50.296;18.960;2023-04-07T06:57:56;41525.78;;;-144.43;100.00
37486;BME280;23341;50.296;18.960;2023-04-07T07:03:01;41605.56;;;-144.43;100.00
37486;BME280;23341;50.296;18.960;2023-04-07T07:08:05;41595.59;;;-144.43;100.00
37486;BME280;23341;50.296;18.960;2023-04-07T07:13:11;41555.69;;;-144.43;100.00
37486;BME280;23341;50.296;18.960;2023-04-07T07:18:15;41657.41;;;-144.43;100.00
37486;BME280;23341;50.296;18.960;2023-04-07T07:23:20;41671.38;;;-144.43;100.00
37486;BME280;23341;50.296;18.960;2023-04-07T07:28:26;41703.28;;;-144.43;100.00
37486;BME280;23341;50.296;18.960;2023-04-07T07:33:30;41653.44;;;-144.43;100.00
37486;BME280;23341;50.296;18.960;2023-04-07T07:38:35;41635.47;;;-144.43;100.00
37486;BME280;23341;50.296;18.960;2023-04-07T07:43:40;41471.91;;;-144.43;100.00
37486;BME280;23341;50.296;18.960;2023-04-07T07:48:45;41587.59;;;-144.43;100.00
37486;BME280;23341;50.296;18.960;2023-04-07T07:53:49;41565.66;;;-144.43;100.00
37486;BME280;23341;50.296;18.960;2023-04-07T07:58:56;41741.19;;;-144.43;100.00
37486;BME280;23341;50.296;18.960;2023-04-07T08:04:01;41705.28;;;-144.43;100.00
37486;BME280;23341;50.296;18.960;2023-04-07T08:09:05;41807.03;;;-144.43;100.00
37486;BME280;23341;50.296;18.960;2023-04-07T08:14:11;41711.28;;;-144.43;100.00
37486;BME280;23341;50.296;18.960;2023-04-07T08:19:16;41731.22;;;-144.43;100.00
37486;BME280;23341;50.296;18.960;2023-04-07T08:24:20;41755.16;;;-144.43;100.00
37486;BME280;23341;50.296;18.960;2023-04-07T08:29:26;41643.47;;;-144.43;100.00
37486;BME280;23341;50.296;18.960;2023-04-07T08:34:32;41691.31;;;-144.43;100.00
37486;BME280;23341;50.296;18.960;2023-04-07T08:39:37;41705.28;;;-144.43;100.00
37486;BME280;23341;50.296;18.960;2023-04-07T08:44:44;41687.34;;;-144.43;100.00
37486;BME280;23341;50.296;18.960;2023-04-07T08:49:51;41733.22;;;-144.43;100.00
37486;BME280;23341;50.296;18.960;2023-04-07T08:54:56;41647.44;;;-144.43;100.00
37486;BME280;23341;50.296;18.960;2023-04-07T09:00:06;41647.44;;;-144.43;100.00
37486;BME280;23341;50.296;18.960;2023-04-07T09:05:11;41619.53;;;-144.43;100.00
37486;BME280;23341;50.296;18.960;2023-04-07T09:10:17;41695.31;;;-144.43;100.00
37486;BME280;23341;50.296;18.960;2023-04-07T09:15:22;41731.22;;;-144.43;100.00
37486;BME280;23341;50.296;18.960;2023-04-07T09:20:27;41721.25;;;-144.43;100.00
37486;BME280;23341;50.296;18.960;2023-04-07T09:25:31;41769.13;;;-144.43;100.00
37486;BME280;23341;50.296;18.960;2023-04-07T09:30:37;41689.34;;;-144.43;100.00
37486;BME280;23341;50.296;18.960;2023-04-07T09:35:50;41777.09;;;-144.43;100.00
37486;BME280;23341;50.296;18.960;2023-04-07T09:41:04;41675.38;;;-144.43;100.00
37486;BME280;23341;50.296;18.960;2023-04-07T09:46:12;41595.59;;;-144.43;100.00
37486;BME280;23341;50.296;18.960;2023-04-07T09:51:17;41707.28;;;-144.43;100.00
37486;BME280;23341;50.296;18.960;2023-04-07T09:56:21;41631.50;;;-144.43;100.00
37486;BME280;23341;50.296;18.960;2023-04-07T10:01:27;41577.63;;;-144.43;100.00
37486;BME280;23341;50.296;18.960;2023-04-07T10:06:31;41599.56;;;-144.43;100.00
37486;BME280;23341;50.296;18.960;2023-04-07T10:11:36;41515.78;;;-144.43;100.00
37486;BME280;23341;50.296;18.960;2023-04-07T10:16:42;41507.81;;;-144.43;100.00
37486;BME280;23341;50.296;18.960;2023-04-07T10:21:50;41390.13;;;-144.43;100.00
37486;BME280;23341;50.296;18.960;2023-04-07T10:26:58;41404.09;;;-144.43;100.00
37486;BME280;23341;50.296;18.960;2023-04-07T10:32:05;41455.97;;;-144.43;100.00
37486;BME280;23341;50.296;18.960;2023-04-07T10:37:11;41438.00;;;-144.43;100.00
37486;BME280;23341;50.296;18.960;2023-04-07T10:42:44;41376.16;;;-144.43;100.00
37486;BME280;23341;50.296;18.960;2023-04-07T10:48:10;41342.25;;;-144.43;100.00
37486;BME280;23341;50.296;18.960;2023-04-07T10:53:15;41382.16;;;-144.43;100.00
37486;BME280;23341;50.296;18.960;2023-04-07T10:58:22;41336.28;;;-144.43;100.00
37486;BME280;23341;50.296;18.960;2023-04-07T11:03:30;41318.31;;;-144.43;100.00
37486;BME280;23341;50.296;18.960;2023-04-07T11:08:37;41332.28;;;-144.43;100.00
37486;BME280;23341;50.296;18.960;2023-04-07T11:13:42;41320.31;;;-144.43;100.00
37486;BME280;23341;50.296;18.960;2023-04-07T11:18:49;41332.28;;;-144.43;100.00
37486;BME280;23341;50.296;18.960;2023-04-07T11:24:00;41352.25;;;-144.43;100.00
37486;BME280;23341;50.296;18.960;2023-04-07T11:29:05;41332.28;;;-144.43;100.00
37486;BME280;23341;50.296;18.960;2023-04-07T11:34:11;41370.19;;;-144.43;100.00
37486;BME280;23341;50.296;18.960;2023-04-07T11:39:19;41336.28;;;-144.43;100.00
37486;BME280;23341;50.296;18.960;2023-04-07T11:44:23;41384.16;;;-144.43;100.00
37486;BME280;23341;50.296;18.960;2023-04-07T11:49:30;41348.25;;;-144.43;100.00
37486;BME280;23341;50.296;18.960;2023-04-07T11:54:40;41290.41;;;-144.43;100.00
37486;BME280;23341;50.296;18.960;2023-04-07T11:59:44;41336.28;;;-144.43;100.00
37486;BME280;23341;50.296;18.960;2023-04-07T12:04:56;41252.50;;;-144.43;100.00
37486;BME280;23341;50.296;18.960;2023-04-07T12:10:18;41208.63;;;-144.43;100.00
37486;BME280;23341;50.296;18.960;2023-04-07T12:15:23;41196.66;;;-144.43;100.00
37486;BME280;23341;50.296;18.960;2023-04-07T12:20:29;41230.56;;;-144.43;100.00
37486;BME280;23341;50.296;18.960;2023-04-07T12:25:33;41202.66;;;-144.43;100.00
37486;BME280;23341;50.296;18.960;2023-04-07T12:30:37;41204.63;;;-144.43;100.00
37486;BME280;23341;50.296;18.960;2023-04-07T12:35:43;41208.63;;;-144.43;100.00
37486;BME280;23341;50.296;18.960;2023-04-07T12:40:48;41248.53;;;-144.43;100.00
37486;BME280;23341;50.296;18.960;2023-04-07T12:45:53;41208.63;;;-144.43;100.00
37486;BME280;23341;50.296;18.960;2023-04-07T12:50:59;41146.81;;;-144.43;100.00
37486;BME280;23341;50.296;18.960;2023-04-07T12:56:04;41104.91;;;-144.43;100.00
37486;BME280;23341;50.296;18.960;2023-04-07T13:01:08;41037.09;;;-144.43;100.00
37486;BME280;23341;50.296;18.960;2023-04-07T13:06:14;41019.16;;;-144.43;100.00
37486;BME280;23341;50.296;18.960;2023-04-07T13:11:19;41057.06;;;-144.43;100.00
37486;BME280;23341;50.296;18.960;2023-04-07T13:16:23;41098.94;;;-144.43;100.00
37486;BME280;23341;50.296;18.960;2023-04-07T13:21:29;41164.75;;;-144.43;100.00
37486;BME280;23341;50.296;18.960;2023-04-07T13:26:36;41168.75;;;-144.43;100.00
37486;BME280;23341;50.296;18.960;2023-04-07T13:31:41;41194.66;;;-144.43;100.00
37486;BME280;23341;50.296;18.960;2023-04-07T13:36:47;41176.72;;;-144.43;100.00
37486;BME280;23341;50.296;18.960;2023-04-07T13:41:51;41162.75;;;-144.43;100.00
37486;BME280;23341;50.296;18.960;2023-04-07T13:46:56;41222.59;;;-144.43;100.00
37486;BME280;23341;50.296;18.960;2023-04-07T13:52:02;41204.63;;;-144.43;100.00
37486;BME280;23341;50.296;18.960;2023-04-07T13:57:06;41132.84;;;-144.43;100.00
37486;BME280;23341;50.296;18.960;2023-04-07T14:02:11;41051.06;;;-144.43;100.00
37486;BME280;23341;50.296;18.960;2023-04-07T14:07:17;41051.06;;;-144.43;100.00
37486;BME280;23341;50.296;18.960;2023-04-07T14:12:21;41094.94;;;-144.43;100.00
37486;BME280;23341;50.296;18.960;2023-04-07T14:17:26;41051.06;;;-144.43;100.00
37486;BME280;23341;50.296;18.960;2023-04-07T14:22:32;40997.22;;;-144.43;100.00
37486;BME280;23341;50.296;18.960;2023-04-07T14:27:36;41045.09;;;-144.43;100.00
37486;BME280;23341;50.296;18.960;2023-04-07T14:32:40;41023.16;;;-144.43;100.00
37486;BME280;23341;50.296;18.960;2023-04-07T14:37:46;40989.25;;;-144.43;100.00
37486;BME280;23341;50.296;18.960;2023-04-07T14:42:50;41003.19;;;-144.43;100.00
37486;BME280;23341;50.296;18.960;2023-04-07T14:48:08;41021.16;;;-144.43;100.00
37486;BME280;23341;50.296;18.960;2023-04-07T14:53:14;41077.00;;;-144.43;100.00
37486;BME280;23341;50.296;18.960;2023-04-07T14:58:18;40985.25;;;-144.43;100.00
37486;BME280;23341;50.296;18.960;2023-04-07T15:03:23;40977.28;;;-144.43;100.00
37486;BME280;23341;50.296;18.960;2023-04-07T15:08:29;40985.25;;;-144.43;100.00
37486;BME280;23341;50.296;18.960;2023-04-07T15:13:34;41025.13;;;-144.43;100.00
37486;BME280;23341;50.296;18.960;2023-04-07T15:18:40;41053.06;;;-144.43;100.00
37486;BME280;23341;50.296;18.960;2023-04-07T15:23:47;41041.09;;;-144.43;100.00
37486;BME280;23341;50.296;18.960;2023-04-07T15:28:52;41017.16;;;-144.43;100.00
37486;BME280;23341;50.296;18.960;2023-04-07T15:33:57;40949.34;;;-144.43;100.00
37486;BME280;23341;50.296;18.960;2023-04-07T15:39:03;40909.47;;;-144.43;100.00
37486;BME280;23341;50.296;18.960;2023-04-07T15:44:08;40915.44;;;-144.43;100.00
37486;BME280;23341;50.296;18.960;2023-04-07T15:49:12;40861.59;;;-144.43;100.00
37486;BME280;23341;50.296;18.960;2023-04-07T15:54:24;40789.81;;;-144.43;100.00
37486;BME280;23341;50.296;18.960;2023-04-07T15:59:28;40771.84;;;-144.43;100.00
37486;BME280;23341;50.296;18.960;2023-04-07T16:04:33;40714.03;;;-144.43;100.00
37486;BME280;23341;50.296;18.960;2023-04-07T16:09:38;40694.09;;;-144.43;100.00
37486;BME280;23341;50.296;18.960;2023-04-07T16:14:43;40578.41;;;-144.43;100.00
37486;BME280;23341;50.296;18.960;2023-04-07T16:19:47;40544.50;;;-144.43;100.00
37486;BME280;23341;50.296;18.960;2023-04-07T16:24:53;40546.50;;;-144.43;100.00
37486;BME280;23341;50.296;18.960;2023-04-07T16:29:57;40518.59;;;-144.43;100.00
37486;BME280;23341;50.296;18.960;2023-04-07T16:35:02;40504.63;;;-144.43;100.00
37486;BME280;23341;50.296;18.960;2023-04-07T16:40:09;40448.78;;;-144.43;100.00
37486;BME280;23341;50.296;18.960;2023-04-07T16:45:13;40426.84;;;-144.43;100.00
37486;BME280;23341;50.296;18.960;2023-04-07T16:50:17;40418.88;;;-144.43;100.00
37486;BME280;23341;50.296;18.960;2023-04-07T16:55:24;40383.00;;;-144.43;100.00
37486;BME280;23341;50.296;18.960;2023-04-07T17:00:28;40339.13;;;-144.43;100.00
37486;BME280;23341;50.296;18.960;2023-04-07T17:05:33;40299.25;;;-144.43;100.00
37486;BME280;23341;50.296;18.960;2023-04-07T17:10:40;40237.44;;;-144.43;100.00
37486;BME280;23341;50.296;18.960;2023-04-07T17:15:45;40247.41;;;-144.43;100.00
37486;BME280;23341;50.296;18.960;2023-04-07T17:20:49;40205.53;;;-144.43;100.00
37486;BME280;23341;50.296;18.960;2023-04-07T17:25:55;40209.50;;;-144.43;100.00
37486;BME280;23341;50.296;18.960;2023-04-07T17:31:00;40207.50;;;-144.43;100.00
37486;BME280;23341;50.296;18.960;2023-04-07T17:36:05;40191.56;;;-144.43;100.00
37486;BME280;23341;50.296;18.960;2023-04-07T17:41:11;40179.59;;;-144.43;100.00
37486;BME280;23341;50.296;18.960;2023-04-07T17:46:15;40161.66;;;-144.43;100.00
37486;BME280;23341;50.296;18.960;2023-04-07T17:51:20;40147.69;;;-144.43;100.00
37486;BME280;23341;50.296;18.960;2023-04-07T17:56:25;40121.78;;;-144.43;100.00
37486;BME280;23341;50.296;18.960;2023-04-07T18:01:30;40127.75;;;-144.43;100.00
37486;BME280;23341;50.296;18.960;2023-04-07T18:06:35;40155.66;;;-144.43;100.00
37486;BME280;23341;50.296;18.960;2023-04-07T18:11:41;40131.75;;;-144.43;100.00
37486;BME280;23341;50.296;18.960;2023-04-07T18:16:45;40099.84;;;-144.43;100.00
37486;BME280;23341;50.296;18.960;2023-04-07T18:21:49;40115.78;;;-144.43;100.00
37486;BME280;23341;50.296;18.960;2023-04-07T18:26:57;40107.81;;;-144.43;100.00
37486;BME280;23341;50.296;18.960;2023-04-07T18:32:01;40113.78;;;-144.43;100.00
37486;BME280;23341;50.296;18.960;2023-04-07T18:37:06;40040.03;;;-144.43;100.00
37486;BME280;23341;50.296;18.960;2023-04-07T18:42:12;40117.78;;;-144.43;100.00
37486;BME280;23341;50.296;18.960;2023-04-07T18:47:17;40050.00;;;-144.43;100.00
37486;BME280;23341;50.296;18.960;2023-04-07T18:52:22;40087.88;;;-144.43;100.00
37486;BME280;23341;50.296;18.960;2023-04-07T18:57:28;40075.91;;;-144.43;100.00
37486;BME280;23341;50.296;18.960;2023-04-07T19:02:32;40075.91;;;-144.43;100.00
37486;BME280;23341;50.296;18.960;2023-04-07T19:07:37;40032.03;;;-144.43;100.00
37486;BME280;23341;50.296;18.960;2023-04-07T19:12:43;40083.88;;;-144.43;100.00
37486;BME280;23341;50.296;18.960;2023-04-07T19:17:48;40055.97;;;-144.43;100.00
37486;BME280;23341;50.296;18.960;2023-04-07T19:22:53;40057.97;;;-144.43;100.00
37486;BME280;23341;50.296;18.960;2023-04-07T19:27:59;40046.00;;;-144.43;100.00
37486;BME280;23341;50.296;18.960;2023-04-07T19:33:04;40073.91;;;-144.43;100.00
37486;BME280;23341;50.296;18.960;2023-04-07T19:38:08;40057.97;;;-144.43;100.00
37486;BME280;23341;50.296;18.960;2023-04-07T19:43:14;40044.00;;;-144.43;100.00
37486;BME280;23341;50.296;18.960;2023-04-07T19:48:19;40012.09;;;-144.43;100.00
37486;BME280;23341;50.296;18.960;2023-04-07T19:53:23;40008.13;;;-144.43;100.00
37486;BME280;23341;50.296;18.960;2023-04-07T19:58:29;39982.19;;;-144.43;100.00
37486;BME280;23341;50.296;18.960;2023-04-07T20:03:35;39996.16;;;-144.43;100.00
37486;BME280;23341;50.296;18.960;2023-04-07T20:08:41;40020.09;;;-144.43;100.00
37486;BME280;23341;50.296;18.960;2023-04-07T20:13:47;40004.13;;;-144.43;100.00
37486;BME280;23341;50.296;18.960;2023-04-07T20:18:52;39984.19;;;-144.43;100.00
37486;BME280;23341;50.296;18.960;2023-04-07T20:23:57;40004.13;;;-144.43;100.00
37486;BME280;23341;50.296;18.960;2023-04-07T20:29:02;39998.16;;;-144.43;100.00
37486;BME280;23341;50.296;18.960;2023-04-07T20:34:07;40028.06;;;-144.43;100.00
37486;BME280;23341;50.296;18.960;2023-04-07T20:39:11;39944.31;;;-144.43;100.00
37486;BME280;23341;50.296;18.960;2023-04-07T20:44:17;39948.31;;;-144.43;100.00
37486;BME280;23341;50.296;18.960;2023-04-07T20:49:22;39950.28;;;-144.43;100.00
37486;BME280;23341;50.296;18.960;2023-04-07T20:54:26;39960.25;;;-144.43;100.00
37486;BME280;23341;50.296;18.960;2023-04-07T20:59:33;39978.22;;;-144.43;100.00
37486;BME280;23341;50.296;18.960;2023-04-07T21:04:37;39966.25;;;-144.43;100.00
37486;BME280;23341;50.296;18.960;2023-04-07T21:09:42;39972.22;;;-144.43;100.00
37486;BME280;23341;50.296;18.960;2023-04-07T21:14:48;39964.25;;;-144.43;100.00
37486;BME280;23341;50.296;18.960;2023-04-07T21:19:53;39934.34;;;-144.43;100.00
37486;BME280;23341;50.296;18.960;2023-04-07T21:24:57;39938.34;;;-144.43;100.00
37486;BME280;23341;50.296;18.960;2023-04-07T21:30:04;39912.41;;;-144.43;100.00
37486;BME280;23341;50.296;18.960;2023-04-07T21:35:09;39948.31;;;-144.43;100.00
37486;BME280;23341;50.296;18.960;2023-04-07T21:40:14;39908.44;;;-144.43;100.00
37486;BME280;23341;50.296;18.960;2023-04-07T21:45:20;51539.75;;;-144.43;100.00
37486;BME280;23341;50.296;18.960;2023-04-07T21:50:25;51517.75;;;-144.43;100.00
37486;BME280;23341;50.296;18.960;2023-04-07T21:55:31;51517.75;;;-144.43;100.00
37486;BME280;23341;50.296;18.960;2023-04-07T22:00:37;51525.75;;;-144.43;100.00
37486;BME280;23341;50.296;18.960;2023-04-07T22:05:41;51505.75;;;-144.43;100.00
37486;BME280;23341;50.296;18.960;2023-04-07T22:10:46;51495.75;;;-144.43;100.00
37486;BME280;23341;50.296;18.960;2023-04-07T22:15:51;51469.75;;;-144.43;100.00
37486;BME280;23341;50.296;18.960;2023-04-07T22:20:56;51491.75;;;-144.43;100.00
37486;BME280;23341;50.296;18.960;2023-04-07T22:26:00;51469.75;;;-144.43;100.00
37486;BME280;23341;50.296;18.960;2023-04-07T22:31:07;51453.75;;;-144.43;100.00
37486;BME280;23341;50.296;18.960;2023-04-07T22:36:11;51509.75;;;-144.43;100.00
37486;BME280;23341;50.296;18.960;2023-04-07T22:41:15;51511.75;;;-144.43;100.00
37486;BME280;23341;50.296;18.960;2023-04-07T22:46:21;51455.75;;;-144.43;100.00
37486;BME280;23341;50.296;18.960;2023-04-07T22:51:25;51453.75;;;-144.43;100.00
37486;BME280;23341;50.296;18.960;2023-04-07T22:56:31;51455.75;;;-144.43;100.00
37486;BME280;23341;50.296;18.960;2023-04-07T23:01:37;51441.75;;;-144.43;100.00
37486;BME280;23341;50.296;18.960;2023-04-07T23:06:41;51477.75;;;-144.43;100.00
37486;BME280;23341;50.296;18.960;2023-04-07T23:11:45;51447.75;;;-144.43;100.00
37486;BME280;23341;50.296;18.960;2023-04-07T23:16:52;51447.75;;;-144.43;100.00
37486;BME280;23341;50.296;18.960;2023-04-07T23:21:57;51417.75;;;-144.43;100.00
37486;BME280;23341;50.296;18.960;2023-04-07T23:27:02;51459.75;;;-144.43;100.00
37486;BME280;23341;50.296;18.960;2023-04-07T23:32:08;51417.75;;;-144.43;100.00
37486;BME280;23341;50.296;18.960;2023-04-07T23:37:13;51419.75;;;-144.43;100.00
37486;BME280;23341;50.296;18.960;2023-04-07T23:42:17;51431.75;;;-144.43;100.00
37486;BME280;23341;50.296;18.960;2023-04-07T23:47:22;51417.75;;;-144.43;100.00
37486;BME280;23341;50.296;18.960;2023-04-07T23:52:27;51433.75;;;-144.43;100.00
37486;BME280;23341;50.296;18.960;2023-04-07T23:57:31;51455.75;;;-144.43;100.00
